sensor_id;sensor_type;location;lat;lon;timestamp;P1;durP1;ratioP1;P2;durP2;ratioP2
59520;SDS011;54898;40.918;14.476;2022-10-16T13:17:29;21.52;;;17.00;;
59520;SDS011;54898;40.918;14.476;2022-10-16T13:20:06;20.70;;;18.23;;
59520;SDS011;54898;40.918;14.476;2022-10-16T13:22:42;20.75;;;18.77;;
59520;SDS011;54898;40.918;14.476;2022-10-16T13:25:19;21.40;;;19.20;;
59520;SDS011;54898;40.918;14.476;2022-10-16T13:27:54;20.83;;;18.63;;
59520;SDS011;54898;40.918;14.476;2022-10-16T13:30:25;21.35;;;19.15;;
59520;SDS011;54898;40.918;14.476;2022-10-16T13:32:58;21.70;;;18.23;;
59520;SDS011;54898;40.918;14.476;2022-10-16T13:35:27;19.63;;;17.65;;
59520;SDS011;54898;40.918;14.476;2022-10-16T13:38:03;17.70;;;15.98;;
59520;SDS011;54898;40.918;14.476;2022-10-16T13:40:31;18.60;;;16.77;;
59520;SDS011;54898;40.918;14.476;2022-10-16T13:43:00;22.77;;;17.10;;
59520;SDS011;54898;40.918;14.476;2022-10-16T13:45:29;27.08;;;17.75;;
59520;SDS011;54898;40.918;14.476;2022-10-16T13:48:03;20.85;;;18.45;;
59520;SDS011;54898;40.918;14.476;2022-10-16T13:50:31;20.00;;;18.05;;
59520;SDS011;54898;40.918;14.476;2022-10-16T13:53:05;19.58;;;17.65;;
59520;SDS011;54898;40.918;14.476;2022-10-16T13:55:32;19.08;;;16.73;;
59520;SDS011;54898;40.918;14.476;2022-10-16T13:58:07;18.50;;;15.75;;
59520;SDS011;54898;40.918;14.476;2022-10-16T14:00:35;19.40;;;16.65;;
59520;SDS011;54898;40.918;14.476;2022-10-16T14:03:03;19.60;;;17.57;;
59520;SDS011;54898;40.918;14.476;2022-10-16T14:05:31;17.63;;;15.73;;
59520;SDS011;54898;40.918;14.476;2022-10-16T14:07:59;19.58;;;17.23;;
59520;SDS011;54898;40.918;14.476;2022-10-16T14:10:27;20.27;;;17.67;;
59520;SDS011;54898;40.918;14.476;2022-10-16T14:12:56;19.08;;;17.17;;
59520;SDS011;54898;40.918;14.476;2022-10-16T14:17:53;20.27;;;18.25;;
59520;SDS011;54898;40.918;14.476;2022-10-16T14:20:21;19.70;;;17.80;;
59520;SDS011;54898;40.918;14.476;2022-10-16T14:23:02;19.13;;;17.17;;
59520;SDS011;54898;40.918;14.476;2022-10-16T14:25:43;18.65;;;16.77;;
59520;SDS011;54898;40.918;14.476;2022-10-16T14:28:14;19.40;;;17.40;;
59520;SDS011;54898;40.918;14.476;2022-10-16T14:30:53;23.52;;;19.25;;
59520;SDS011;54898;40.918;14.476;2022-10-16T14:33:23;20.55;;;18.40;;
59520;SDS011;54898;40.918;14.476;2022-10-16T14:36:01;23.95;;;21.42;;
59520;SDS011;54898;40.918;14.476;2022-10-16T14:38:30;22.02;;;19.92;;
59520;SDS011;54898;40.918;14.476;2022-10-16T14:40:58;21.42;;;18.83;;
59520;SDS011;54898;40.918;14.476;2022-10-16T14:43:29;20.52;;;18.42;;
59520;SDS011;54898;40.918;14.476;2022-10-16T14:45:59;23.48;;;20.67;;
59520;SDS011;54898;40.918;14.476;2022-10-16T14:48:28;21.00;;;18.80;;
59520;SDS011;54898;40.918;14.476;2022-10-16T14:50:55;22.00;;;18.75;;
59520;SDS011;54898;40.918;14.476;2022-10-16T14:53:23;21.70;;;18.58;;
59520;SDS011;54898;40.918;14.476;2022-10-16T14:55:49;21.08;;;19.05;;
59520;SDS011;54898;40.918;14.476;2022-10-16T14:58:17;21.00;;;18.80;;
59520;SDS011;54898;40.918;14.476;2022-10-16T15:00:46;22.65;;;19.92;;
59520;SDS011;54898;40.918;14.476;2022-10-16T15:03:13;21.13;;;19.08;;
59520;SDS011;54898;40.918;14.476;2022-10-16T15:05:41;20.92;;;18.50;;
59520;SDS011;54898;40.918;14.476;2022-10-16T15:08:07;24.48;;;20.70;;
59520;SDS011;54898;40.918;14.476;2022-10-16T15:10:35;21.80;;;19.80;;
59520;SDS011;54898;40.918;14.476;2022-10-16T15:13:06;24.00;;;20.30;;
59520;SDS011;54898;40.918;14.476;2022-10-16T15:15:35;22.58;;;20.45;;
59520;SDS011;54898;40.918;14.476;2022-10-16T15:18:03;21.60;;;19.35;;
59520;SDS011;54898;40.918;14.476;2022-10-16T15:20:31;22.75;;;20.40;;
59520;SDS011;54898;40.918;14.476;2022-10-16T15:23:01;23.77;;;20.48;;
59520;SDS011;54898;40.918;14.476;2022-10-16T15:25:30;22.90;;;20.10;;
59520;SDS011;54898;40.918;14.476;2022-10-16T15:27:59;22.55;;;20.38;;
59520;SDS011;54898;40.918;14.476;2022-10-16T15:30:27;24.02;;;19.27;;
59520;SDS011;54898;40.918;14.476;2022-10-16T15:32:54;22.15;;;19.50;;
59520;SDS011;54898;40.918;14.476;2022-10-16T15:35:21;23.05;;;20.75;;
59520;SDS011;54898;40.918;14.476;2022-10-16T15:37:48;23.33;;;20.23;;
59520;SDS011;54898;40.918;14.476;2022-10-16T15:40:17;23.92;;;20.45;;
59520;SDS011;54898;40.918;14.476;2022-10-16T15:42:45;22.52;;;20.33;;
